sensor_id;sensor_type;location;lat;lon;timestamp;pressure;altitude;pressure_sealevel;temperature;humidity
65659;BME280;60181;53.258;6.932;2023-01-27T00:01:44;102797.25;;;14.18;63.57
65659;BME280;60181;53.258;6.932;2023-01-27T00:05:48;102796.02;;;14.18;63.49
65659;BME280;60181;53.258;6.932;2023-01-27T00:09:52;102795.36;;;14.18;63.57
65659;BME280;60181;53.258;6.932;2023-01-27T00:13:56;102793.63;;;14.18;63.69
65659;BME280;60181;53.258;6.932;2023-01-27T00:18:00;102792.59;;;14.17;63.78
65659;BME280;60181;53.258;6.932;2023-01-27T00:22:04;102793.70;;;14.16;63.95
65659;BME280;60181;53.258;6.932;2023-01-27T00:26:09;102793.98;;;14.15;64.11
65659;BME280;60181;53.258;6.932;2023-01-27T00:30:12;102794.76;;;14.14;64.17
65659;BME280;60181;53.258;6.932;2023-01-27T00:34:16;102796.36;;;14.13;64.24
65659;BME280;60181;53.258;6.932;2023-01-27T00:38:20;102798.23;;;14.12;64.34
65659;BME280;60181;53.258;6.932;2023-01-27T00:42:24;102799.84;;;14.11;64.39
65659;BME280;60181;53.258;6.932;2023-01-27T00:46:28;102801.53;;;14.10;64.55
65659;BME280;60181;53.258;6.932;2023-01-27T00:50:32;102803.37;;;14.10;64.73
65659;BME280;60181;53.258;6.932;2023-01-27T00:54:36;102804.93;;;14.09;64.76
65659;BME280;60181;53.258;6.932;2023-01-27T00:58:40;102807.10;;;14.08;64.86
65659;BME280;60181;53.258;6.932;2023-01-27T01:02:44;102809.95;;;14.07;64.91
65659;BME280;60181;53.258;6.932;2023-01-27T01:06:48;102812.66;;;14.07;65.08
65659;BME280;60181;53.258;6.932;2023-01-27T01:10:52;102815.58;;;14.05;65.03
65659;BME280;60181;53.258;6.932;2023-01-27T01:14:56;102818.13;;;14.05;65.15
65659;BME280;60181;53.258;6.932;2023-01-27T01:19:00;102820.02;;;14.05;65.12
65659;BME280;60181;53.258;6.932;2023-01-27T01:23:04;102822.05;;;14.07;64.69
65659;BME280;60181;53.258;6.932;2023-01-27T01:27:08;102823.79;;;14.07;64.66
65659;BME280;60181;53.258;6.932;2023-01-27T01:31:13;102827.53;;;14.08;64.73
65659;BME280;60181;53.258;6.932;2023-01-27T01:35:16;102830.63;;;14.07;64.68
65659;BME280;60181;53.258;6.932;2023-01-27T01:39:20;102835.16;;;14.07;64.71
65659;BME280;60181;53.258;6.932;2023-01-27T01:43:24;102837.74;;;14.06;64.63
65659;BME280;60181;53.258;6.932;2023-01-27T01:47:28;102841.86;;;14.06;64.52
65659;BME280;60181;53.258;6.932;2023-01-27T01:55:36;102850.12;;;14.04;64.44
65659;BME280;60181;53.258;6.932;2023-01-27T01:59:42;102854.21;;;14.04;64.28
65659;BME280;60181;53.258;6.932;2023-01-27T02:03:46;102855.92;;;14.03;64.16
65659;BME280;60181;53.258;6.932;2023-01-27T02:11:52;102858.92;;;14.02;65.33
65659;BME280;60181;53.258;6.932;2023-01-27T02:15:56;102859.45;;;14.02;64.14
65659;BME280;60181;53.258;6.932;2023-01-27T02:20:08;102860.33;;;14.02;63.83
65659;BME280;60181;53.258;6.932;2023-01-27T02:24:04;102861.15;;;14.02;64.20
65659;BME280;60181;53.258;6.932;2023-01-27T02:28:08;102862.40;;;14.03;64.32
65659;BME280;60181;53.258;6.932;2023-01-27T02:32:22;102861.72;;;14.01;65.48
65659;BME280;60181;53.258;6.932;2023-01-27T02:36:16;102862.16;;;13.90;66.51
65659;BME280;60181;53.258;6.932;2023-01-27T02:40:20;102861.83;;;13.78;66.76
65659;BME280;60181;53.258;6.932;2023-01-27T02:44:24;102860.51;;;13.67;66.85
65659;BME280;60181;53.258;6.932;2023-01-27T02:48:28;102860.38;;;13.58;66.75
65659;BME280;60181;53.258;6.932;2023-01-27T02:52:32;102859.13;;;13.51;66.66
65659;BME280;60181;53.258;6.932;2023-01-27T02:56:36;102858.44;;;13.43;66.46
65659;BME280;60181;53.258;6.932;2023-01-27T03:00:40;102858.13;;;13.38;66.63
65659;BME280;60181;53.258;6.932;2023-01-27T03:04:44;102858.52;;;13.33;66.20
65659;BME280;60181;53.258;6.932;2023-01-27T03:08:48;102860.23;;;13.29;66.44
65659;BME280;60181;53.258;6.932;2023-01-27T03:12:52;102866.33;;;13.25;66.45
65659;BME280;60181;53.258;6.932;2023-01-27T03:16:56;102870.62;;;13.22;66.38
65659;BME280;60181;53.258;6.932;2023-01-27T03:21:01;102875.27;;;13.20;66.34
65659;BME280;60181;53.258;6.932;2023-01-27T03:25:04;102878.13;;;13.18;66.37
65659;BME280;60181;53.258;6.932;2023-01-27T03:29:08;102881.52;;;13.16;66.15
65659;BME280;60181;53.258;6.932;2023-01-27T03:33:12;102883.30;;;13.14;66.02
65659;BME280;60181;53.258;6.932;2023-01-27T03:37:16;102885.55;;;13.13;66.08
65659;BME280;60181;53.258;6.932;2023-01-27T03:41:20;102888.21;;;13.12;65.92
65659;BME280;60181;53.258;6.932;2023-01-27T03:45:24;102892.96;;;13.10;65.90
65659;BME280;60181;53.258;6.932;2023-01-27T03:49:28;102896.28;;;13.09;65.97
65659;BME280;60181;53.258;6.932;2023-01-27T03:53:32;102899.51;;;13.08;65.95
65659;BME280;60181;53.258;6.932;2023-01-27T03:57:36;102901.39;;;13.07;65.73
65659;BME280;60181;53.258;6.932;2023-01-27T04:01:40;102904.13;;;13.06;65.77
65659;BME280;60181;53.258;6.932;2023-01-27T04:05:44;102905.24;;;13.06;65.73
65659;BME280;60181;53.258;6.932;2023-01-27T04:09:48;102905.30;;;13.05;65.84
65659;BME280;60181;53.258;6.932;2023-01-27T04:13:52;102905.02;;;13.05;65.68
65659;BME280;60181;53.258;6.932;2023-01-27T04:17:56;102903.30;;;13.11;64.33
65659;BME280;60181;53.258;6.932;2023-01-27T04:22:00;102900.56;;;13.19;64.12
65659;BME280;60181;53.258;6.932;2023-01-27T04:26:04;102899.88;;;13.26;63.58
65659;BME280;60181;53.258;6.932;2023-01-27T04:30:08;102900.45;;;13.33;63.65
65659;BME280;60181;53.258;6.932;2023-01-27T04:34:12;102901.92;;;13.38;63.43
65659;BME280;60181;53.258;6.932;2023-01-27T04:38:16;102900.88;;;13.41;63.46
65659;BME280;60181;53.258;6.932;2023-01-27T04:42:20;102899.84;;;13.44;63.52
65659;BME280;60181;53.258;6.932;2023-01-27T04:46:24;102897.56;;;13.46;63.51
65659;BME280;60181;53.258;6.932;2023-01-27T04:50:28;102898.28;;;13.47;63.67
65659;BME280;60181;53.258;6.932;2023-01-27T04:54:32;102900.07;;;13.48;63.74
65659;BME280;60181;53.258;6.932;2023-01-27T04:58:36;102902.97;;;13.50;63.70
65659;BME280;60181;53.258;6.932;2023-01-27T05:02:40;102907.15;;;13.51;63.88
65659;BME280;60181;53.258;6.932;2023-01-27T05:06:44;102911.89;;;13.53;63.85
65659;BME280;60181;53.258;6.932;2023-01-27T05:10:48;102916.02;;;13.53;63.98
65659;BME280;60181;53.258;6.932;2023-01-27T05:14:52;102920.94;;;13.52;64.07
65659;BME280;60181;53.258;6.932;2023-01-27T05:18:56;102922.79;;;13.51;65.44
65659;BME280;60181;53.258;6.932;2023-01-27T05:23:00;102926.04;;;13.52;64.15
65659;BME280;60181;53.258;6.932;2023-01-27T05:27:04;102929.87;;;13.51;64.17
65659;BME280;60181;53.258;6.932;2023-01-27T05:35:12;102937.55;;;13.50;64.24
65659;BME280;60181;53.258;6.932;2023-01-27T05:39:16;102938.96;;;13.49;64.14
65659;BME280;60181;53.258;6.932;2023-01-27T05:43:20;102938.34;;;13.48;64.14
65659;BME280;60181;53.258;6.932;2023-01-27T05:47:24;102940.01;;;13.47;64.09
65659;BME280;60181;53.258;6.932;2023-01-27T05:51:29;102940.04;;;13.46;64.13
65659;BME280;60181;53.258;6.932;2023-01-27T05:55:32;102940.97;;;13.44;64.09
65659;BME280;60181;53.258;6.932;2023-01-27T05:59:36;102941.46;;;13.43;64.01
65659;BME280;60181;53.258;6.932;2023-01-27T06:03:40;102941.36;;;13.42;64.16
65659;BME280;60181;53.258;6.932;2023-01-27T06:07:44;102940.89;;;13.41;64.27
65659;BME280;60181;53.258;6.932;2023-01-27T06:11:48;102939.36;;;13.40;64.29
65659;BME280;60181;53.258;6.932;2023-01-27T06:15:52;102939.31;;;13.40;64.28
65659;BME280;60181;53.258;6.932;2023-01-27T06:19:56;102939.67;;;13.39;64.17
65659;BME280;60181;53.258;6.932;2023-01-27T06:24:00;102942.26;;;13.38;64.18
65659;BME280;60181;53.258;6.932;2023-01-27T06:28:04;102947.36;;;13.38;64.34
65659;BME280;60181;53.258;6.932;2023-01-27T06:32:08;102951.46;;;13.38;64.17
65659;BME280;60181;53.258;6.932;2023-01-27T06:36:12;102957.23;;;13.37;64.34
65659;BME280;60181;53.258;6.932;2023-01-27T06:40:16;102963.31;;;13.36;64.43
65659;BME280;60181;53.258;6.932;2023-01-27T06:44:20;102970.00;;;13.35;64.44
65659;BME280;60181;53.258;6.932;2023-01-27T06:48:24;102974.58;;;13.34;64.27
65659;BME280;60181;53.258;6.932;2023-01-27T06:52:28;102980.30;;;13.33;64.30
65659;BME280;60181;53.258;6.932;2023-01-27T06:56:32;102986.00;;;13.32;64.30
65659;BME280;60181;53.258;6.932;2023-01-27T07:00:36;102991.31;;;13.32;64.29
65659;BME280;60181;53.258;6.932;2023-01-27T07:04:40;102995.65;;;13.31;64.33
65659;BME280;60181;53.258;6.932;2023-01-27T07:08:44;102998.17;;;13.30;64.17
65659;BME280;60181;53.258;6.932;2023-01-27T07:12:48;103000.92;;;13.33;64.49
65659;BME280;60181;53.258;6.932;2023-01-27T07:16:52;103003.09;;;13.33;64.65
65659;BME280;60181;53.258;6.932;2023-01-27T07:20:56;103005.65;;;13.33;64.75
65659;BME280;60181;53.258;6.932;2023-01-27T07:25:00;103008.69;;;13.33;64.58
65659;BME280;60181;53.258;6.932;2023-01-27T07:29:04;103011.05;;;13.36;64.20
65659;BME280;60181;53.258;6.932;2023-01-27T07:33:09;103013.96;;;13.36;64.34
65659;BME280;60181;53.258;6.932;2023-01-27T07:37:12;103016.75;;;13.35;64.42
65659;BME280;60181;53.258;6.932;2023-01-27T07:41:16;103019.85;;;13.33;64.42
65659;BME280;60181;53.258;6.932;2023-01-27T07:45:20;103024.10;;;13.30;64.43
65659;BME280;60181;53.258;6.932;2023-01-27T07:49:24;103028.17;;;13.28;64.24
65659;BME280;60181;53.258;6.932;2023-01-27T07:53:28;103034.77;;;13.26;64.16
65659;BME280;60181;53.258;6.932;2023-01-27T07:57:31;103039.11;;;13.25;64.14
65659;BME280;60181;53.258;6.932;2023-01-27T08:01:36;103043.65;;;13.24;64.07
65659;BME280;60181;53.258;6.932;2023-01-27T08:05:39;103047.60;;;13.23;64.06
65659;BME280;60181;53.258;6.932;2023-01-27T08:09:43;103049.16;;;13.23;63.96
65659;BME280;60181;53.258;6.932;2023-01-27T08:13:47;103050.35;;;13.22;63.83
65659;BME280;60181;53.258;6.932;2023-01-27T08:17:54;103050.84;;;13.22;63.78
65659;BME280;60181;53.258;6.932;2023-01-27T08:21:55;103051.62;;;13.23;63.76
65659;BME280;60181;53.258;6.932;2023-01-27T08:26:00;103053.45;;;13.23;63.71
65659;BME280;60181;53.258;6.932;2023-01-27T08:30:04;103055.02;;;13.24;63.63
65659;BME280;60181;53.258;6.932;2023-01-27T08:34:07;103058.56;;;13.24;63.62
65659;BME280;60181;53.258;6.932;2023-01-27T08:38:12;103061.77;;;13.24;63.59
65659;BME280;60181;53.258;6.932;2023-01-27T08:42:15;103065.95;;;13.23;63.57
65659;BME280;60181;53.258;6.932;2023-01-27T08:46:19;103071.12;;;13.24;64.02
65659;BME280;60181;53.258;6.932;2023-01-27T08:50:23;103075.89;;;13.29;63.61
65659;BME280;60181;53.258;6.932;2023-01-27T08:54:27;103079.64;;;13.29;63.99
65659;BME280;60181;53.258;6.932;2023-01-27T08:58:31;103082.97;;;13.27;64.15
65659;BME280;60181;53.258;6.932;2023-01-27T09:02:35;103085.00;;;13.25;64.20
65659;BME280;60181;53.258;6.932;2023-01-27T09:06:39;103086.94;;;13.23;64.15
65659;BME280;60181;53.258;6.932;2023-01-27T09:10:43;103090.70;;;13.21;64.17
65659;BME280;60181;53.258;6.932;2023-01-27T09:14:47;103093.26;;;13.20;64.18
65659;BME280;60181;53.258;6.932;2023-01-27T09:18:52;103096.83;;;13.19;64.19
65659;BME280;60181;53.258;6.932;2023-01-27T09:22:56;103098.67;;;13.18;64.13
65659;BME280;60181;53.258;6.932;2023-01-27T09:26:59;103102.77;;;13.17;64.12
65659;BME280;60181;53.258;6.932;2023-01-27T09:31:04;103106.18;;;13.17;64.01
65659;BME280;60181;53.258;6.932;2023-01-27T09:35:08;103108.91;;;13.17;64.04
65659;BME280;60181;53.258;6.932;2023-01-27T09:39:11;103111.17;;;13.17;64.04
65659;BME280;60181;53.258;6.932;2023-01-27T09:47:25;103113.06;;;13.18;64.03
65659;BME280;60181;53.258;6.932;2023-01-27T09:55:32;103114.22;;;13.18;64.03
65659;BME280;60181;53.258;6.932;2023-01-27T09:59:42;103114.47;;;13.18;63.99
65659;BME280;60181;53.258;6.932;2023-01-27T10:08:01;103114.99;;;13.17;64.02
65659;BME280;60181;53.258;6.932;2023-01-27T10:15:51;103118.26;;;13.17;64.00
65659;BME280;60181;53.258;6.932;2023-01-27T10:28:01;103123.54;;;13.17;63.94
65659;BME280;60181;53.258;6.932;2023-01-27T10:32:07;103124.45;;;13.17;63.93
65659;BME280;60181;53.258;6.932;2023-01-27T10:36:16;103123.86;;;13.17;63.91
65659;BME280;60181;53.258;6.932;2023-01-27T10:52:25;103123.14;;;13.20;63.76
65659;BME280;60181;53.258;6.932;2023-01-27T10:56:31;103121.31;;;13.21;63.70
65659;BME280;60181;53.258;6.932;2023-01-27T11:00:38;103119.89;;;13.22;63.71
65659;BME280;60181;53.258;6.932;2023-01-27T11:04:37;103118.54;;;13.24;63.67
65659;BME280;60181;53.258;6.932;2023-01-27T11:08:40;103117.37;;;13.24;63.78
65659;BME280;60181;53.258;6.932;2023-01-27T11:12:45;103114.25;;;13.24;63.78
65659;BME280;60181;53.258;6.932;2023-01-27T11:16:48;103111.77;;;13.24;63.75
65659;BME280;60181;53.258;6.932;2023-01-27T11:20:52;103109.42;;;13.24;63.78
65659;BME280;60181;53.258;6.932;2023-01-27T11:25:04;103107.85;;;13.24;63.74
65659;BME280;60181;53.258;6.932;2023-01-27T11:29:05;103106.42;;;13.24;63.66
65659;BME280;60181;53.258;6.932;2023-01-27T11:33:27;103104.04;;;13.24;63.68
65659;BME280;60181;53.258;6.932;2023-01-27T11:37:20;103103.55;;;13.25;63.66
65659;BME280;60181;53.258;6.932;2023-01-27T11:41:11;103103.02;;;13.25;63.91
65659;BME280;60181;53.258;6.932;2023-01-27T11:45:16;103102.73;;;13.27;63.34
65659;BME280;60181;53.258;6.932;2023-01-27T11:49:26;103103.70;;;13.29;63.58
65659;BME280;60181;53.258;6.932;2023-01-27T11:53:27;103102.23;;;13.29;63.65
65659;BME280;60181;53.258;6.932;2023-01-27T11:57:27;103100.24;;;13.29;63.64
65659;BME280;60181;53.258;6.932;2023-01-27T12:01:46;103096.37;;;13.29;63.67
65659;BME280;60181;53.258;6.932;2023-01-27T12:05:37;103092.74;;;13.28;63.68
65659;BME280;60181;53.258;6.932;2023-01-27T12:09:40;103089.33;;;13.28;63.68
65659;BME280;60181;53.258;6.932;2023-01-27T12:13:50;103085.88;;;13.28;63.66
65659;BME280;60181;53.258;6.932;2023-01-27T12:17:49;103084.19;;;13.28;63.73
65659;BME280;60181;53.258;6.932;2023-01-27T12:21:53;103082.54;;;13.28;63.72
65659;BME280;60181;53.258;6.932;2023-01-27T12:25:59;103081.54;;;13.28;63.69
65659;BME280;60181;53.258;6.932;2023-01-27T12:30:00;103082.30;;;13.29;63.68
65659;BME280;60181;53.258;6.932;2023-01-27T12:34:04;103082.86;;;13.28;63.65
65659;BME280;60181;53.258;6.932;2023-01-27T12:38:15;103082.37;;;13.28;63.66
65659;BME280;60181;53.258;6.932;2023-01-27T12:50:21;103081.71;;;13.28;63.63
65659;BME280;60181;53.258;6.932;2023-01-27T12:54:26;103079.74;;;13.28;63.63
65659;BME280;60181;53.258;6.932;2023-01-27T12:58:31;103076.94;;;13.28;63.64
65659;BME280;60181;53.258;6.932;2023-01-27T13:02:31;103074.65;;;13.28;63.65
65659;BME280;60181;53.258;6.932;2023-01-27T13:06:37;103072.33;;;13.28;63.59
65659;BME280;60181;53.258;6.932;2023-01-27T13:10:39;103072.25;;;13.29;63.65
65659;BME280;60181;53.258;6.932;2023-01-27T13:14:43;103072.75;;;13.29;63.65
65659;BME280;60181;53.258;6.932;2023-01-27T13:18:57;103072.58;;;13.29;63.69
65659;BME280;60181;53.258;6.932;2023-01-27T13:23:01;103072.34;;;13.29;63.65
65659;BME280;60181;53.258;6.932;2023-01-27T13:26:55;103072.51;;;13.29;63.64
65659;BME280;60181;53.258;6.932;2023-01-27T13:31:02;103072.02;;;13.29;63.65
65659;BME280;60181;53.258;6.932;2023-01-27T13:35:05;103072.51;;;13.29;63.71
65659;BME280;60181;53.258;6.932;2023-01-27T13:39:13;103072.44;;;13.29;63.64
65659;BME280;60181;53.258;6.932;2023-01-27T13:43:21;103072.72;;;13.29;63.57
65659;BME280;60181;53.258;6.932;2023-01-27T13:47:24;103072.97;;;13.30;63.62
65659;BME280;60181;53.258;6.932;2023-01-27T13:51:20;103071.15;;;13.30;63.66
65659;BME280;60181;53.258;6.932;2023-01-27T13:59:40;103070.92;;;13.33;63.71
65659;BME280;60181;53.258;6.932;2023-01-27T14:07:40;103070.03;;;13.33;63.77
65659;BME280;60181;53.258;6.932;2023-01-27T14:11:56;103069.96;;;13.34;63.78
65659;BME280;60181;53.258;6.932;2023-01-27T14:19:59;103069.86;;;13.33;63.80
65659;BME280;60181;53.258;6.932;2023-01-27T14:24:00;103071.26;;;13.34;63.80
65659;BME280;60181;53.258;6.932;2023-01-27T14:36:19;103073.43;;;13.32;63.79
65659;BME280;60181;53.258;6.932;2023-01-27T14:40:12;103073.83;;;13.32;63.83
65659;BME280;60181;53.258;6.932;2023-01-27T14:44:32;103073.62;;;13.32;63.80
65659;BME280;60181;53.258;6.932;2023-01-27T14:48:34;103073.78;;;13.31;63.78
65659;BME280;60181;53.258;6.932;2023-01-27T15:00:34;103074.72;;;13.30;63.73
65659;BME280;60181;53.258;6.932;2023-01-27T15:04:35;103075.71;;;13.30;63.69
65659;BME280;60181;53.258;6.932;2023-01-27T15:16:45;103078.96;;;13.31;63.74
65659;BME280;60181;53.258;6.932;2023-01-27T15:28:55;103085.08;;;13.30;63.73
65659;BME280;60181;53.258;6.932;2023-01-27T15:32:59;103087.96;;;13.30;63.80
65659;BME280;60181;53.258;6.932;2023-01-27T15:37:17;103090.92;;;13.30;63.78
65659;BME280;60181;53.258;6.932;2023-01-27T15:41:09;103094.46;;;13.29;63.76
65659;BME280;60181;53.258;6.932;2023-01-27T15:45:24;103098.11;;;13.29;63.79
65659;BME280;60181;53.258;6.932;2023-01-27T15:49:24;103100.66;;;13.29;63.81
65659;BME280;60181;53.258;6.932;2023-01-27T15:53:32;103102.47;;;13.29;63.97
65659;BME280;60181;53.258;6.932;2023-01-27T15:57:41;103104.47;;;13.36;63.30
65659;BME280;60181;53.258;6.932;2023-01-27T16:01:30;103105.41;;;13.38;63.72
65659;BME280;60181;53.258;6.932;2023-01-27T16:05:40;103107.46;;;13.37;64.01
65659;BME280;60181;53.258;6.932;2023-01-27T16:09:44;103108.63;;;13.36;64.09
65659;BME280;60181;53.258;6.932;2023-01-27T16:13:39;103109.77;;;13.35;64.04
65659;BME280;60181;53.258;6.932;2023-01-27T16:21:55;103114.34;;;13.33;64.05
65659;BME280;60181;53.258;6.932;2023-01-27T16:25:51;103118.24;;;13.32;64.02
65659;BME280;60181;53.258;6.932;2023-01-27T16:30:05;103121.59;;;13.31;64.02
65659;BME280;60181;53.258;6.932;2023-01-27T16:33:59;103123.01;;;13.30;64.04
65659;BME280;60181;53.258;6.932;2023-01-27T16:38:04;103126.10;;;13.29;63.99
65659;BME280;60181;53.258;6.932;2023-01-27T16:42:08;103127.23;;;13.29;64.01
65659;BME280;60181;53.258;6.932;2023-01-27T16:54:21;103131.97;;;13.28;64.00
65659;BME280;60181;53.258;6.932;2023-01-27T16:58:23;103133.52;;;13.28;63.99
65659;BME280;60181;53.258;6.932;2023-01-27T17:02:27;103134.75;;;13.28;63.97
65659;BME280;60181;53.258;6.932;2023-01-27T17:06:31;103138.46;;;13.28;64.00
65659;BME280;60181;53.258;6.932;2023-01-27T17:10:35;103141.50;;;13.28;64.02
65659;BME280;60181;53.258;6.932;2023-01-27T17:14:39;103144.30;;;13.28;64.00
65659;BME280;60181;53.258;6.932;2023-01-27T17:18:43;103146.52;;;13.27;63.99
65659;BME280;60181;53.258;6.932;2023-01-27T17:22:47;103149.48;;;13.27;63.93
65659;BME280;60181;53.258;6.932;2023-01-27T17:31:00;103154.91;;;13.27;63.99
65659;BME280;60181;53.258;6.932;2023-01-27T17:35:02;103156.88;;;13.27;64.00
65659;BME280;60181;53.258;6.932;2023-01-27T17:39:11;103158.91;;;13.27;63.99
65659;BME280;60181;53.258;6.932;2023-01-27T17:47:14;103162.54;;;13.27;63.99
65659;BME280;60181;53.258;6.932;2023-01-27T17:51:17;103165.81;;;13.27;63.98
65659;BME280;60181;53.258;6.932;2023-01-27T17:55:20;103168.29;;;13.27;63.92
65659;BME280;60181;53.258;6.932;2023-01-27T17:59:23;103169.76;;;13.27;63.98
65659;BME280;60181;53.258;6.932;2023-01-27T18:03:29;103171.58;;;13.27;63.94
65659;BME280;60181;53.258;6.932;2023-01-27T18:07:31;103172.81;;;13.27;63.96
65659;BME280;60181;53.258;6.932;2023-01-27T18:11:35;103175.54;;;13.27;63.84
65659;BME280;60181;53.258;6.932;2023-01-27T18:15:39;103178.28;;;13.27;63.87
65659;BME280;60181;53.258;6.932;2023-01-27T18:19:47;103180.03;;;13.33;63.52
65659;BME280;60181;53.258;6.932;2023-01-27T18:27:51;103180.46;;;13.39;63.63
65659;BME280;60181;53.258;6.932;2023-01-27T18:31:55;103181.10;;;13.39;63.67
65659;BME280;60181;53.258;6.932;2023-01-27T18:35:59;103181.48;;;13.38;63.74
65659;BME280;60181;53.258;6.932;2023-01-27T18:40:20;103184.52;;;13.38;63.70
65659;BME280;60181;53.258;6.932;2023-01-27T18:44:07;103187.89;;;13.38;63.73
65659;BME280;60181;53.258;6.932;2023-01-27T18:48:11;103191.59;;;13.37;63.73
65659;BME280;60181;53.258;6.932;2023-01-27T18:52:15;103194.18;;;13.37;63.67
65659;BME280;60181;53.258;6.932;2023-01-27T18:56:19;103196.14;;;13.36;63.65
65659;BME280;60181;53.258;6.932;2023-01-27T19:00:24;103198.03;;;13.36;63.68
65659;BME280;60181;53.258;6.932;2023-01-27T19:04:27;103199.55;;;13.36;63.70
65659;BME280;60181;53.258;6.932;2023-01-27T19:08:31;103201.94;;;13.36;63.61
65659;BME280;60181;53.258;6.932;2023-01-27T19:12:35;103204.31;;;13.35;63.83
65659;BME280;60181;53.258;6.932;2023-01-27T19:16:39;103205.82;;;13.37;63.53
65659;BME280;60181;53.258;6.932;2023-01-27T19:20:43;103208.20;;;13.39;63.54
65659;BME280;60181;53.258;6.932;2023-01-27T19:24:47;103209.03;;;13.39;63.65
65659;BME280;60181;53.258;6.932;2023-01-27T19:28:51;103209.31;;;13.38;63.68
65659;BME280;60181;53.258;6.932;2023-01-27T19:32:55;103208.89;;;13.38;63.77
65659;BME280;60181;53.258;6.932;2023-01-27T19:36:59;103210.03;;;13.37;63.73
65659;BME280;60181;53.258;6.932;2023-01-27T19:41:03;103210.85;;;13.37;63.73
65659;BME280;60181;53.258;6.932;2023-01-27T19:45:07;103211.84;;;13.37;63.69
65659;BME280;60181;53.258;6.932;2023-01-27T19:49:17;103211.60;;;13.38;63.71
65659;BME280;60181;53.258;6.932;2023-01-27T19:53:15;103210.61;;;13.38;63.72
65659;BME280;60181;53.258;6.932;2023-01-27T19:57:18;103210.21;;;13.38;63.68
65659;BME280;60181;53.258;6.932;2023-01-27T20:01:23;103209.14;;;13.38;63.66
65659;BME280;60181;53.258;6.932;2023-01-27T20:05:27;103207.50;;;13.38;63.63
65659;BME280;60181;53.258;6.932;2023-01-27T20:09:31;103206.63;;;13.39;63.63
65659;BME280;60181;53.258;6.932;2023-01-27T20:13:34;103206.80;;;13.39;63.59
65659;BME280;60181;53.258;6.932;2023-01-27T20:17:38;103206.30;;;13.39;63.60
65659;BME280;60181;53.258;6.932;2023-01-27T20:21:43;103205.81;;;13.39;63.60
65659;BME280;60181;53.258;6.932;2023-01-27T20:25:46;103205.98;;;13.39;63.62
65659;BME280;60181;53.258;6.932;2023-01-27T20:29:51;103205.58;;;13.39;63.65
65659;BME280;60181;53.258;6.932;2023-01-27T20:33:54;103205.42;;;13.39;63.59
65659;BME280;60181;53.258;6.932;2023-01-27T20:37:58;103204.83;;;13.39;63.51
65659;BME280;60181;53.258;6.932;2023-01-27T20:42:02;103205.49;;;13.39;63.56
65659;BME280;60181;53.258;6.932;2023-01-27T20:46:07;103205.82;;;13.39;63.54
65659;BME280;60181;53.258;6.932;2023-01-27T20:50:12;103206.57;;;13.39;63.52
65659;BME280;60181;53.258;6.932;2023-01-27T20:54:14;103206.08;;;13.39;63.54
65659;BME280;60181;53.258;6.932;2023-01-27T20:58:18;103203.52;;;13.39;63.53
65659;BME280;60181;53.258;6.932;2023-01-27T21:02:23;103202.28;;;13.39;63.52
65659;BME280;60181;53.258;6.932;2023-01-27T21:06:26;103201.48;;;13.43;63.16
65659;BME280;60181;53.258;6.932;2023-01-27T21:10:30;103200.72;;;13.49;63.17
65659;BME280;60181;53.258;6.932;2023-01-27T21:14:34;103201.16;;;13.60;62.98
65659;BME280;60181;53.258;6.932;2023-01-27T21:18:38;103202.37;;;13.72;62.84
65659;BME280;60181;53.258;6.932;2023-01-27T21:22:43;103204.87;;;13.82;62.80
65659;BME280;60181;53.258;6.932;2023-01-27T21:26:46;103206.02;;;13.90;62.89
65659;BME280;60181;53.258;6.932;2023-01-27T21:30:50;103206.29;;;13.96;62.71
65659;BME280;60181;53.258;6.932;2023-01-27T21:34:54;103205.96;;;14.01;62.69
65659;BME280;60181;53.258;6.932;2023-01-27T21:38:58;103204.39;;;14.05;62.52
65659;BME280;60181;53.258;6.932;2023-01-27T21:43:02;103203.08;;;14.08;62.28
65659;BME280;60181;53.258;6.932;2023-01-27T21:47:08;103202.29;;;14.11;62.36
65659;BME280;60181;53.258;6.932;2023-01-27T21:51:10;103201.92;;;14.13;62.13
65659;BME280;60181;53.258;6.932;2023-01-27T21:55:15;103200.40;;;14.14;62.32
65659;BME280;60181;53.258;6.932;2023-01-27T21:59:18;103199.94;;;14.16;62.11
65659;BME280;60181;53.258;6.932;2023-01-27T22:03:22;103197.84;;;14.17;62.20
65659;BME280;60181;53.258;6.932;2023-01-27T22:07:27;103196.66;;;14.18;62.16
65659;BME280;60181;53.258;6.932;2023-01-27T22:11:30;103196.64;;;14.19;62.21
65659;BME280;60181;53.258;6.932;2023-01-27T22:15:34;103196.53;;;14.20;62.64
65659;BME280;60181;53.258;6.932;2023-01-27T22:19:38;103196.13;;;14.20;62.62
65659;BME280;60181;53.258;6.932;2023-01-27T22:23:42;103195.30;;;14.20;62.48
65659;BME280;60181;53.258;6.932;2023-01-27T22:27:46;103192.48;;;14.20;62.64
65659;BME280;60181;53.258;6.932;2023-01-27T22:31:50;103190.62;;;14.19;62.65
65659;BME280;60181;53.258;6.932;2023-01-27T22:35:58;103188.51;;;14.18;62.32
65659;BME280;60181;53.258;6.932;2023-01-27T22:39:58;103185.99;;;14.17;62.45
65659;BME280;60181;53.258;6.932;2023-01-27T22:44:02;103181.88;;;14.16;62.66
65659;BME280;60181;53.258;6.932;2023-01-27T22:48:06;103179.03;;;14.15;62.66
65659;BME280;60181;53.258;6.932;2023-01-27T22:52:10;103179.26;;;14.14;62.57
65659;BME280;60181;53.258;6.932;2023-01-27T22:56:14;103179.63;;;14.13;62.56
65659;BME280;60181;53.258;6.932;2023-01-27T23:00:19;103179.25;;;14.12;62.60
65659;BME280;60181;53.258;6.932;2023-01-27T23:04:22;103178.13;;;14.12;62.66
65659;BME280;60181;53.258;6.932;2023-01-27T23:08:26;103177.36;;;14.11;62.79
65659;BME280;60181;53.258;6.932;2023-01-27T23:12:30;103177.23;;;14.10;62.81
65659;BME280;60181;53.258;6.932;2023-01-27T23:16:34;103178.02;;;14.10;62.67
65659;BME280;60181;53.258;6.932;2023-01-27T23:20:39;103177.91;;;14.09;62.86